Dorchester, WI (54425)

10:29 PM CST on February 10, 2016 (GMT -0600)
Taylor County | | Change Station
CLOSE
Current Station
Airport
Location: Medford,
Elevation: 1470 ft
Nearby Weather Stations

Elev 1470 ft 45.10 °N, 90.30 °W | Updated 14 minutes ago

Clear
Clear
0 °F
Feels Like -10 °F
N
5
Wind Variable Wind from North

Today
High -- | Low -- °F
--% Chance of Precip.
Yesterday
High -- | Low -- °F
Precip. -- in
Pressure 30.12 in
Visibility 10.0 miles
Clouds Clear
Windchill -10 °F
Dew Point -5 °F
Humidity 78%
Rainfall 0.00 in
Snow Depth Not available.
7:10 AM 5:21 PM
Waxing Crescent, 9% visible
METAR KMDZ 110415Z AUTO 36004KT 10SM CLR M18/M21 A3012 RMK AO2 T11761206
Pressure 30.12 in
Visibility 10.0 miles
Clouds Clear
Windchill -10 °F
Dew Point -5 °F
Humidity 78%
Rainfall 0.00 in
Snow Depth Not available.
7:10 AM 5:21 PM
Waxing Crescent, 9% visible
METAR KMDZ 110415Z AUTO 36004KT 10SM CLR M18/M21 A3012 RMK AO2 T11761206

10-Day Weather Forecast

Almanac

Astronomy

Feb. 10, 2016 Rise Set
Actual Time
Civil Twilight
Nautical Twilight
Astronomical Twilight
Moon
Length of Visible Light
Length of Day
Tomorrow will be .
, % of the Moon is Illuminated

Today's Extremes

State Highs State Lows

Community

WunderPhotos

Upload Photos

1,892,012 photos uploaded!

WunderBlog® & News

Nearby

Air Quality

  Air Quality AQ Index Pollutant
Not available.

Snow Depth

Station Depth Elevation

Earthquake Activity

City Distance Mag. Time & Date
Minimum magnitude displayed is 2.5.

Coastal Water Temperatures

Place Temperature

Stations

Nearby Weather Stations

Station Location Temp. Windchill Dew Point Humidity Wind Precip. Elev Updated Type
                   

Watches & Warnings

There are currently no watches in effect.